Time;durP1;ratioP1;P1;durP2;ratioP2;P2;SDS_P1;SDS_P2;PMS_P1;PMS_P2;Temp;Humidity;BMP_temperature;BMP_pressure;BME280_temperature;BME280_humidity;BME280_pressure;Samples;Min_cycle;Max_cycle;Signal;HPM_P1;HPM_P2
2023/10/14 00:00:39;;;;;;;7.73;4.90;;;20.30;99.90;;;;;;5036946;28;20249;-56
2023/10/14 00:03:18;;;;;;;5.10;4.33;;;20.30;99.90;;;;;;5028429;28;20209;-55
2023/10/14 00:05:44;;;;;;;7.63;5.23;;;20.20;99.90;;;;;;5030939;28;20302;-55
2023/10/14 00:08:12;;;;;;;6.83;5.23;;;20.10;99.90;;;;;;5022950;28;20221;-55
2023/10/14 00:10:39;;;;;;;5.77;4.63;;;20.00;99.90;;;;;;5023197;28;20258;-59
2023/10/14 00:13:10;;;;;;;11.17;5.07;;;20.00;99.90;;;;;;5029299;28;20832;-55
2023/10/14 00:15:36;;;;;;;9.87;4.43;;;19.90;99.90;;;;;;5033391;28;20292;-62
2023/10/14 00:18:02;;;;;;;8.03;5.40;;;19.80;99.90;;;;;;5035668;28;20619;-65
2023/10/14 00:20:34;;;;;;;10.97;5.37;;;19.80;99.90;;;;;;5026509;28;20712;-63
2023/10/14 00:23:00;;;;;;;11.97;5.50;;;19.80;99.90;;;;;;5023577;28;20210;-62
2023/10/14 00:25:25;;;;;;;7.23;4.77;;;19.80;99.90;;;;;;5025842;28;20203;-66
2023/10/14 00:27:51;;;;;;;6.43;4.70;;;19.80;99.90;;;;;;5016343;28;20238;-60
2023/10/14 00:30:19;;;;;;;7.53;5.00;;;19.70;99.90;;;;;;5021066;28;20283;-58
2023/10/14 00:32:45;;;;;;;10.90;5.30;;;19.60;99.90;;;;;;5019806;28;20585;-58
2023/10/14 00:35:11;;;;;;;6.80;4.97;;;19.60;99.90;;;;;;5029819;28;20283;-57
2023/10/14 00:37:37;;;;;;;10.13;4.63;;;19.60;99.90;;;;;;5031787;28;20196;-58
2023/10/14 00:40:22;;;;;;;5.67;4.90;;;19.60;99.90;;;;;;5025776;28;20269;-54
2023/10/14 00:42:50;;;;;;;7.63;5.20;;;19.60;99.90;;;;;;5024741;28;20296;-65
2023/10/14 00:45:20;;;;;;;8.00;5.33;;;19.70;99.90;;;;;;5025376;28;20195;-61
2023/10/14 00:47:48;;;;;;;9.47;5.03;;;19.70;99.90;;;;;;5022140;28;20289;-58
2023/10/14 00:50:33;;;;;;;7.23;4.73;;;19.70;99.90;;;;;;5021610;28;20568;-57
2023/10/14 00:53:00;;;;;;;8.57;5.73;;;19.70;99.90;;;;;;5003503;28;20217;-54
2023/10/14 00:55:54;;;;;;;9.00;4.53;;;19.80;99.90;;;;;;5021266;28;20203;-55
2023/10/14 00:58:23;;;;;;;9.93;4.40;;;19.70;99.90;;;;;;5027153;28;20851;-55
2023/10/14 01:00:58;;;;;;;6.40;5.07;;;19.80;99.90;;;;;;5026334;28;20640;-57
2023/10/14 01:03:25;;;;;;;6.37;5.33;;;19.80;99.90;;;;;;5029133;28;20200;-56
2023/10/14 01:05:56;;;;;;;6.67;4.57;;;19.80;99.90;;;;;;5031135;28;20699;-56
2023/10/14 01:08:24;;;;;;;6.50;4.87;;;19.80;99.90;;;;;;5009001;28;20287;-55
2023/10/14 01:10:50;;;;;;;6.77;5.00;;;19.70;99.90;;;;;;5031785;28;20220;-54
2023/10/14 01:13:22;;;;;;;7.60;5.90;;;19.70;99.90;;;;;;5022440;28;20935;-54
2023/10/14 01:15:51;;;;;;;7.47;4.20;;;19.80;99.90;;;;;;5023406;28;20928;-57
2023/10/14 01:18:17;;;;;;;11.93;5.27;;;19.80;99.90;;;;;;5024892;28;20224;-55
2023/10/14 01:20:42;;;;;;;8.33;4.10;;;19.80;99.90;;;;;;5007951;28;20211;-55
2023/10/14 01:23:12;;;;;;;8.70;4.97;;;19.80;99.90;;;;;;5026731;28;20218;-55
2023/10/14 01:25:47;;;;;;;4.60;3.70;;;19.80;99.90;;;;;;5025779;28;21097;-58
2023/10/14 01:28:15;;;;;;;8.83;4.90;;;19.80;99.90;;;;;;5026781;28;20279;-57
2023/10/14 01:30:51;;;;;;;12.93;4.73;;;19.80;99.90;;;;;;5020403;28;20980;-56
2023/10/14 01:33:18;;;;;;;8.13;3.77;;;19.80;99.90;;;;;;5019105;28;20216;-55
2023/10/14 01:35:45;;;;;;;9.40;4.33;;;19.80;99.90;;;;;;5013471;28;20212;-56
2023/10/14 01:38:10;;;;;;;7.00;4.13;;;19.80;99.90;;;;;;5020853;28;20211;-55
2023/10/14 01:40:38;;;;;;;8.13;4.73;;;19.80;99.90;;;;;;5026562;28;20527;-55
2023/10/14 01:43:08;;;;;;;7.40;4.43;;;19.70;99.90;;;;;;5012454;28;20201;-54
2023/10/14 01:46:00;;;;;;;9.53;4.70;;;19.70;99.90;;;;;;5018328;28;20262;-55
2023/10/14 01:48:30;;;;;;;5.27;4.70;;;19.70;99.90;;;;;;5026966;28;20745;-55
2023/10/14 01:50:56;;;;;;;8.87;5.33;;;19.60;99.90;;;;;;5012283;28;20680;-56
2023/10/14 01:53:32;;;;;;;8.03;4.17;;;19.60;99.90;;;;;;5028580;28;20189;-55
2023/10/14 01:55:59;;;;;;;7.40;3.73;;;19.50;99.90;;;;;;5021807;28;20199;-54
2023/10/14 01:58:29;;;;;;;4.53;3.23;;;19.50;99.90;;;;;;5022325;28;20789;-54
2023/10/14 02:01:12;;;;;;;7.40;3.90;;;19.40;99.90;;;;;;5017816;28;20324;-54
2023/10/14 02:03:44;;;;;;;11.47;4.03;;;19.40;99.90;;;;;;5021804;28;20689;-53
2023/10/14 02:06:17;;;;;;;7.80;4.00;;;19.40;99.90;;;;;;5029002;28;20291;-54
2023/10/14 02:08:46;;;;;;;6.23;4.40;;;19.40;99.90;;;;;;5020904;28;20214;-54
2023/10/14 02:11:12;;;;;;;14.80;4.47;;;19.30;99.90;;;;;;5022629;28;20215;-54
2023/10/14 02:13:38;;;;;;;6.27;4.17;;;19.30;99.90;;;;;;5023930;28;20199;-56
2023/10/14 02:16:07;;;;;;;7.37;3.93;;;19.30;99.90;;;;;;5023292;28;20220;-57
2023/10/14 02:18:37;;;;;;;5.90;3.67;;;19.20;99.90;;;;;;5019363;28;20229;-56
2023/10/14 02:21:11;;;;;;;7.27;4.13;;;19.20;99.90;;;;;;5020398;28;20366;-60
2023/10/14 02:23:44;;;;;;;7.47;4.90;;;19.20;99.90;;;;;;5016801;28;20230;-55
2023/10/14 02:26:16;;;;;;;5.43;4.00;;;19.20;99.90;;;;;;5022490;28;20203;-55
2023/10/14 02:28:48;;;;;;;8.10;4.87;;;19.20;99.90;;;;;;5017345;28;20196;-56
2023/10/14 02:31:17;;;;;;;8.30;4.07;;;19.20;99.90;;;;;;5016312;28;20218;-55
2023/10/14 02:33:47;;;;;;;6.73;4.13;;;19.20;99.90;;;;;;5024494;28;20250;-60
2023/10/14 02:36:16;;;;;;;6.13;4.47;;;19.20;99.90;;;;;;5021505;28;20203;-59
2023/10/14 02:38:44;;;;;;;9.57;4.10;;;19.20;99.90;;;;;;5026014;28;20820;-60
2023/10/14 02:41:10;;;;;;;6.07;3.87;;;19.20;99.90;;;;;;5026976;28;20575;-60
2023/10/14 02:43:38;;;;;;;7.00;3.23;;;19.20;99.90;;;;;;5034677;28;20748;-60
2023/10/14 02:46:04;;;;;;;6.47;3.60;;;19.20;99.90;;;;;;5022687;28;20205;-61
2023/10/14 02:48:52;;;;;;;4.63;3.50;;;19.30;99.90;;;;;;5036983;28;20196;-61
2023/10/14 02:51:16;;;;;;;5.13;3.50;;;19.30;99.90;;;;;;5025643;28;20228;-61
2023/10/14 02:53:42;;;;;;;9.40;4.00;;;19.30;99.90;;;;;;5027653;28;20836;-57
2023/10/14 02:58:43;;;;;;;8.13;4.20;;;19.30;99.90;;;;;;4984372;22;20232;-55
2023/10/14 03:01:12;;;;;;;9.93;4.77;;;19.40;99.90;;;;;;5024255;28;20207;-55
2023/10/14 03:03:42;;;;;;;5.57;3.97;;;19.50;99.90;;;;;;5030121;28;20224;-54
2023/10/14 03:06:08;;;;;;;6.60;3.70;;;19.60;99.90;;;;;;5010773;28;20639;-53
2023/10/14 03:08:34;;;;;;;5.50;3.80;;;19.60;99.90;;;;;;5030703;28;20248;-55
2023/10/14 03:11:15;;;;;;;6.67;4.13;;;19.70;99.90;;;;;;5033282;28;20314;-54
2023/10/14 03:13:41;;;;;;;5.60;4.43;;;19.70;99.90;;;;;;5034598;28;20287;-55
2023/10/14 03:16:07;;;;;;;5.00;3.50;;;19.80;99.90;;;;;;5002927;28;20294;-56
2023/10/14 03:18:43;;;;;;;8.73;3.83;;;19.90;99.90;;;;;;5034851;28;20800;-55
2023/10/14 03:21:09;;;;;;;4.63;3.43;;;19.90;99.90;;;;;;5034757;28;20191;-55
2023/10/14 03:23:35;;;;;;;7.00;3.47;;;20.00;99.90;;;;;;5036455;28;20717;-54
2023/10/14 03:26:11;;;;;;;7.13;3.87;;;19.90;99.90;;;;;;5036174;28;20199;-54
2023/10/14 03:28:38;;;;;;;5.77;3.90;;;20.00;99.90;;;;;;5027801;28;20224;-55
2023/10/14 03:31:07;;;;;;;6.27;4.17;;;20.00;99.90;;;;;;5037003;28;20219;-54
2023/10/14 03:33:42;;;;;;;7.83;3.93;;;20.00;99.90;;;;;;5029186;28;20208;-54
2023/10/14 03:36:08;;;;;;;7.13;4.23;;;20.00;99.90;;;;;;5030439;28;20254;-55
2023/10/14 03:41:20;;;;;;;10.00;4.00;;;20.10;99.90;;;;;;5039007;28;20207;-54
2023/10/14 03:44:33;;;;;;;4.87;4.20;;;20.20;99.90;;;;;;5031497;28;20285;-55
2023/10/14 03:46:35;;;;;;;10.73;4.20;;;20.20;99.90;;;;;;5018160;28;20916;-55
2023/10/14 03:49:06;;;;;;;5.27;4.13;;;20.30;99.90;;;;;;5017368;28;20604;-55
2023/10/14 03:51:33;;;;;;;8.73;4.67;;;20.30;99.90;;;;;;5036039;28;20237;-56
2023/10/14 03:54:07;;;;;;;7.23;4.40;;;20.20;99.90;;;;;;5017180;28;20206;-56
2023/10/14 03:56:34;;;;;;;10.40;5.27;;;20.30;99.90;;;;;;5033045;28;20204;-54
2023/10/14 03:59:01;;;;;;;5.57;4.20;;;20.30;99.90;;;;;;5031447;28;21308;-54
2023/10/14 04:01:43;;;;;;;7.57;4.47;;;20.30;99.90;;;;;;5034229;28;20295;-54
2023/10/14 04:04:18;;;;;;;5.87;4.73;;;20.30;99.90;;;;;;5028920;28;20216;-55
2023/10/14 04:06:55;;;;;;;9.67;5.00;;;20.30;99.90;;;;;;5035446;28;20226;-56
2023/10/14 04:09:36;;;;;;;4.60;4.03;;;20.30;99.90;;;;;;5031819;28;20221;-56
2023/10/14 04:12:07;;;;;;;5.70;4.30;;;20.30;99.90;;;;;;5034494;28;20235;-56
2023/10/14 04:14:35;;;;;;;6.10;4.83;;;20.40;99.90;;;;;;5025784;28;20203;-55
2023/10/14 04:17:10;;;;;;;9.23;5.17;;;20.40;99.90;;;;;;5032749;28;20226;-55
2023/10/14 04:19:58;;;;;;;10.73;5.33;;;20.40;99.90;;;;;;5030487;28;20204;-55
2023/10/14 04:24:50;;;;;;;10.60;4.90;;;20.40;99.90;;;;;;5028530;28;20206;-56
2023/10/14 04:30:03;;;;;;;6.67;4.30;;;20.40;99.90;;;;;;5034590;28;20292;-55
2023/10/14 04:32:40;;;;;;;7.37;4.07;;;20.40;99.90;;;;;;5041193;28;20240;-55
2023/10/14 04:35:06;;;;;;;6.40;4.97;;;20.40;99.90;;;;;;5032043;28;20577;-55
2023/10/14 04:37:50;;;;;;;10.77;5.17;;;20.40;99.90;;;;;;5033814;28;20212;-55
2023/10/14 04:40:24;;;;;;;10.03;5.03;;;20.50;99.90;;;;;;5031636;28;20214;-55
2023/10/14 04:42:56;;;;;;;9.90;4.93;;;20.40;99.90;;;;;;5017184;28;20215;-55
2023/10/14 04:45:30;;;;;;;6.83;4.37;;;20.40;99.90;;;;;;5036116;28;20253;-55
2023/10/14 04:47:57;;;;;;;9.27;5.10;;;20.50;99.90;;;;;;5042017;28;20790;-55
2023/10/14 04:50:23;;;;;;;7.67;4.47;;;20.50;99.90;;;;;;5038009;28;20205;-55
2023/10/14 04:52:48;;;;;;;10.10;4.80;;;20.40;99.90;;;;;;5039108;28;20208;-56
2023/10/14 04:55:32;;;;;;;8.33;4.97;;;20.40;99.90;;;;;;5035231;28;20208;-55
2023/10/14 04:58:15;;;;;;;8.13;5.00;;;20.20;99.90;;;;;;5031635;28;20717;-55
2023/10/14 05:00:45;;;;;;;9.07;5.27;;;19.60;99.90;;;;;;5033935;28;20667;-56
2023/10/14 05:03:15;;;;;;;9.70;5.57;;;18.80;99.90;;;;;;5033435;28;20699;-54
2023/10/14 05:05:43;;;;;;;9.27;5.73;;;17.90;99.90;;;;;;5014673;28;20227;-55
2023/10/14 05:08:15;;;;;;;9.87;6.60;;;17.10;99.90;;;;;;5033614;28;20692;-56
2023/10/14 05:10:43;;;;;;;9.13;6.10;;;17.00;99.90;;;;;;5036429;28;20223;-56
2023/10/14 05:13:09;;;;;;;9.10;6.83;;;16.70;99.90;;;;;;5035951;28;20210;-56
2023/10/14 05:15:41;;;;;;;10.37;7.40;;;16.60;99.90;;;;;;5040874;28;20202;-55
2023/10/14 05:18:17;;;;;;;8.30;6.67;;;16.50;99.90;;;;;;5037293;28;20192;-55
2023/10/14 05:23:30;;;;;;;8.97;6.20;;;16.30;99.90;;;;;;5037059;28;20202;-55
2023/10/14 05:25:59;;;;;;;6.97;5.53;;;16.10;99.90;;;;;;5022660;28;20298;-55
2023/10/14 05:28:29;;;;;;;11.83;5.27;;;16.10;99.90;;;;;;5032958;28;20203;-59
2023/10/14 05:30:57;;;;;;;4.87;4.27;;;16.00;99.90;;;;;;5031168;28;20214;-55
2023/10/14 05:33:23;;;;;;;7.13;3.43;;;16.00;99.90;;;;;;5032491;28;20206;-55
2023/10/14 05:35:48;;;;;;;5.07;3.60;;;15.90;99.90;;;;;;5032493;28;20231;-53
2023/10/14 05:38:15;;;;;;;4.80;2.77;;;15.90;99.90;;;;;;5031890;28;20229;-54
2023/10/14 05:40:41;;;;;;;4.53;1.60;;;15.60;99.90;;;;;;5036509;28;20273;-55
2023/10/14 05:43:08;;;;;;;1.27;1.10;;;15.10;99.90;;;;;;5033383;28;20268;-55
2023/10/14 05:45:37;;;;;;;2.70;1.03;;;14.80;99.90;;;;;;5031042;28;20651;-55
2023/10/14 05:48:03;;;;;;;3.03;1.00;;;14.50;99.90;;;;;;5037151;28;20207;-56
2023/10/14 05:50:33;;;;;;;1.63;1.00;;;14.20;99.90;;;;;;5016010;28;20615;-54
2023/10/14 05:52:59;;;;;;;0.77;0.60;;;13.90;99.90;;;;;;5037143;28;20260;-54
2023/10/14 05:55:25;;;;;;;2.00;1.00;;;13.80;99.90;;;;;;5039504;28;20870;-54
2023/10/14 05:57:51;;;;;;;1.77;1.07;;;13.60;99.90;;;;;;5032937;28;20248;-54
2023/10/14 06:00:25;;;;;;;0.77;0.77;;;13.60;99.90;;;;;;5018743;28;20200;-53
2023/10/14 06:02:54;;;;;;;0.70;0.70;;;13.60;99.90;;;;;;5032218;28;20229;-54
2023/10/14 06:05:26;;;;;;;3.67;1.30;;;13.50;99.90;;;;;;5038489;28;20357;-54
2023/10/14 06:07:59;;;;;;;1.20;1.10;;;13.40;99.90;;;;;;5017818;28;20253;-55
2023/10/14 06:10:29;;;;;;;1.17;1.07;;;13.50;99.90;;;;;;5036208;28;20198;-54
2023/10/14 06:12:58;;;;;;;0.93;0.83;;;13.40;99.90;;;;;;5036422;28;20210;-54
2023/10/14 06:15:25;;;;;;;2.17;0.53;;;13.40;99.90;;;;;;5032477;28;20191;-54
2023/10/14 06:17:54;;;;;;;1.10;1.07;;;13.40;99.90;;;;;;5032364;28;20205;-55
2023/10/14 06:20:20;;;;;;;1.73;0.90;;;13.40;99.90;;;;;;5032102;28;20206;-55
2023/10/14 06:22:46;;;;;;;0.60;0.60;;;13.20;99.90;;;;;;5032080;28;20199;-54
2023/10/14 06:25:16;;;;;;;1.40;0.70;;;13.10;99.90;;;;;;5031890;28;20335;-55
2023/10/14 06:27:45;;;;;;;0.63;0.63;;;13.10;99.90;;;;;;5032005;28;20189;-54
2023/10/14 06:30:19;;;;;;;0.67;0.67;;;13.10;99.90;;;;;;5036413;28;20291;-55
2023/10/14 06:32:48;;;;;;;1.70;1.00;;;13.10;99.90;;;;;;5032412;28;20468;-53
2023/10/14 06:35:15;;;;;;;1.73;0.80;;;13.10;99.90;;;;;;5031697;28;20195;-54
2023/10/14 06:37:43;;;;;;;1.17;0.80;;;13.20;99.90;;;;;;5034729;28;20785;-54
2023/10/14 06:40:12;;;;;;;2.83;1.10;;;13.30;99.90;;;;;;5035981;28;20715;-54
2023/10/14 06:42:43;;;;;;;2.30;0.60;;;13.40;99.90;;;;;;5037042;28;20205;-55
2023/10/14 06:45:13;;;;;;;1.00;0.90;;;13.30;99.90;;;;;;5027466;28;20194;-54
2023/10/14 06:47:47;;;;;;;2.50;1.10;;;13.30;99.90;;;;;;5038897;28;20198;-54
2023/10/14 06:50:13;;;;;;;2.87;1.10;;;13.30;99.90;;;;;;5038051;28;20202;-54
2023/10/14 06:52:40;;;;;;;1.93;1.00;;;13.30;99.90;;;;;;5035450;28;20211;-54
2023/10/14 06:55:07;;;;;;;3.43;1.03;;;13.40;99.90;;;;;;5024033;28;20195;-54
2023/10/14 06:57:35;;;;;;;2.50;1.13;;;13.40;99.90;;;;;;5036759;28;20220;-55
2023/10/14 07:00:08;;;;;;;1.43;1.10;;;13.40;99.90;;;;;;5015020;28;20595;-54
2023/10/14 07:02:35;;;;;;;1.60;1.00;;;13.50;99.90;;;;;;5039961;28;20254;-54
2023/10/14 07:05:02;;;;;;;3.47;1.47;;;13.50;99.90;;;;;;5002089;28;20230;-54
2023/10/14 07:07:27;;;;;;;1.40;1.30;;;13.60;99.90;;;;;;5013716;28;20718;-54
2023/10/14 07:09:53;;;;;;;2.30;1.27;;;13.50;99.90;;;;;;5017010;28;20217;-54
2023/10/14 07:12:21;;;;;;;4.43;2.23;;;13.60;99.90;;;;;;5030849;28;20210;-54
2023/10/14 07:14:47;;;;;;;2.23;1.10;;;13.60;99.90;;;;;;5012943;28;20218;-54
2023/10/14 07:17:17;;;;;;;3.67;1.40;;;13.60;99.90;;;;;;5031606;28;20658;-55
2023/10/14 07:19:43;;;;;;;4.03;1.10;;;13.60;99.90;;;;;;5029943;28;20205;-54
2023/10/14 07:22:09;;;;;;;3.10;1.07;;;13.60;99.90;;;;;;5033428;28;20209;-55
2023/10/14 07:24:37;;;;;;;3.03;1.20;;;13.60;99.90;;;;;;5014638;28;20208;-54
2023/10/14 07:27:03;;;;;;;2.97;0.90;;;13.60;99.90;;;;;;5032836;28;20211;-54
2023/10/14 07:29:29;;;;;;;3.13;1.00;;;13.60;99.90;;;;;;5030576;28;20210;-54
2023/10/14 07:31:54;;;;;;;3.13;1.43;;;13.60;99.90;;;;;;5016355;28;20857;-54
2023/10/14 07:34:20;;;;;;;1.33;0.93;;;13.60;99.90;;;;;;5031448;28;20524;-58
2023/10/14 07:36:45;;;;;;;6.50;1.50;;;13.60;99.90;;;;;;5030107;28;20339;-56
2023/10/14 07:39:29;;;;;;;4.00;1.00;;;13.50;99.90;;;;;;5030142;28;20780;-56
2023/10/14 07:41:55;;;;;;;2.43;1.00;;;13.50;99.90;;;;;;5010528;28;20209;-55
2023/10/14 07:44:22;;;;;;;2.07;1.40;;;13.50;99.90;;;;;;5031073;28;20202;-55
2023/10/14 07:46:49;;;;;;;1.57;1.10;;;13.50;99.90;;;;;;5033367;28;20205;-53
2023/10/14 07:49:15;;;;;;;1.43;0.90;;;13.50;99.90;;;;;;5031270;28;20209;-56
2023/10/14 07:51:42;;;;;;;3.03;1.30;;;13.50;99.90;;;;;;5030499;28;20217;-58
2023/10/14 07:54:08;;;;;;;4.97;1.53;;;13.70;99.90;;;;;;5033404;28;20202;-64
2023/10/14 07:56:34;;;;;;;5.73;1.33;;;14.00;99.90;;;;;;5035457;28;20210;-66
2023/10/14 07:59:01;;;;;;;1.50;1.40;;;14.10;99.90;;;;;;5029547;28;20219;-58
2023/10/14 08:01:27;;;;;;;2.73;1.87;;;14.10;99.90;;;;;;5030216;28;20187;-65
2023/10/14 08:03:59;;;;;;;4.63;1.73;;;14.10;99.90;;;;;;5012887;28;20203;-59
2023/10/14 08:06:25;;;;;;;3.20;1.20;;;14.10;99.90;;;;;;5036565;28;20201;-56
2023/10/14 08:08:51;;;;;;;3.53;1.40;;;14.10;99.90;;;;;;5033460;28;20210;-69
2023/10/14 08:11:16;;;;;;;3.97;1.33;;;14.20;99.90;;;;;;5022962;28;20245;-65
2023/10/14 08:13:43;;;;;;;7.13;1.50;;;14.30;99.90;;;;;;5033673;28;20276;-57
2023/10/14 08:16:11;;;;;;;3.03;1.83;;;14.50;99.90;;;;;;5034837;28;20597;-56
2023/10/14 08:18:37;;;;;;;2.80;1.53;;;14.40;99.90;;;;;;5023188;28;20916;-67
2023/10/14 08:21:03;;;;;;;3.60;1.47;;;14.30;99.90;;;;;;5033721;28;20205;-66
2023/10/14 08:23:29;;;;;;;3.97;1.40;;;14.30;99.90;;;;;;5035035;28;20198;-56
2023/10/14 08:25:55;;;;;;;3.87;1.43;;;14.30;99.90;;;;;;5034752;28;20199;-55
2023/10/14 08:28:22;;;;;;;5.43;1.73;;;14.30;99.90;;;;;;5034183;28;20194;-56
2023/10/14 08:30:50;;;;;;;2.87;1.20;;;14.30;99.90;;;;;;5031040;28;20210;-68
2023/10/14 08:33:18;;;;;;;3.83;1.30;;;14.30;99.90;;;;;;5031182;28;20195;-59
2023/10/14 08:35:48;;;;;;;5.57;1.53;;;14.40;99.90;;;;;;5037384;28;20202;-57
2023/10/14 08:38:14;;;;;;;6.70;2.10;;;14.40;99.90;;;;;;5031807;28;20209;-57
2023/10/14 08:40:41;;;;;;;7.17;1.70;;;14.50;99.90;;;;;;5033568;28;20248;-58
2023/10/14 08:43:10;;;;;;;2.13;1.43;;;14.50;99.90;;;;;;5035815;28;20213;-57
2023/10/14 08:45:39;;;;;;;4.97;1.83;;;14.50;99.90;;;;;;5032568;28;20677;-56
2023/10/14 08:48:06;;;;;;;6.33;2.00;;;14.60;99.90;;;;;;5023957;28;20202;-57
2023/10/14 08:50:33;;;;;;;8.73;1.83;;;14.70;99.90;;;;;;5033208;28;20226;-56
2023/10/14 08:53:02;;;;;;;3.87;1.27;;;14.70;99.90;;;;;;5034855;28;20211;-59
2023/10/14 08:55:32;;;;;;;7.00;1.60;;;14.80;99.90;;;;;;5025140;28;20226;-63
2023/10/14 08:58:01;;;;;;;4.23;1.23;;;14.90;99.90;;;;;;5018158;28;20291;-62
2023/10/14 09:00:29;;;;;;;6.10;1.63;;;14.90;99.90;;;;;;5015999;28;20245;-66
2023/10/14 09:02:55;;;;;;;3.53;1.20;;;14.90;99.90;;;;;;5016438;28;20202;-66
2023/10/14 09:05:23;;;;;;;6.53;1.23;;;14.80;99.90;;;;;;5017965;28;20211;-58
2023/10/14 09:07:49;;;;;;;8.37;1.63;;;14.80;99.90;;;;;;5033111;28;20751;-61
2023/10/14 09:10:20;;;;;;;5.50;1.30;;;14.90;99.90;;;;;;5031611;28;20701;-59
2023/10/14 09:12:55;;;;;;;5.23;1.73;;;14.80;99.90;;;;;;5032312;28;21126;-57
2023/10/14 09:15:22;;;;;;;1.73;1.33;;;14.80;99.90;;;;;;5033683;28;20612;-55
2023/10/14 09:17:48;;;;;;;5.43;1.50;;;14.80;99.90;;;;;;5009142;28;20682;-55
2023/10/14 09:20:35;;;;;;;6.57;1.57;;;14.80;99.90;;;;;;5015465;28;20194;-55
2023/10/14 09:23:44;;;;;;;8.13;2.10;;;14.80;99.90;;;;;;5032012;28;20782;-53
2023/10/14 09:26:09;;;;;;;5.67;1.50;;;15.00;99.90;;;;;;5030843;28;20195;-63
2023/10/14 09:28:40;;;;;;;8.50;2.00;;;15.00;99.90;;;;;;5032941;28;20224;-58
2023/10/14 09:31:08;;;;;;;5.63;1.40;;;14.90;99.90;;;;;;5032450;28;20257;-57
2023/10/14 09:33:38;;;;;;;6.33;1.53;;;15.00;99.90;;;;;;5034037;28;20236;-58
2023/10/14 09:36:11;;;;;;;3.93;1.20;;;15.10;99.90;;;;;;5031972;28;20665;-57
2023/10/14 09:38:38;;;;;;;7.93;2.13;;;15.00;99.90;;;;;;5032689;28;20230;-57
2023/10/14 09:41:05;;;;;;;4.53;1.53;;;15.10;99.90;;;;;;5033836;28;21023;-57
2023/10/14 09:43:32;;;;;;;7.13;1.83;;;15.20;99.90;;;;;;5032834;28;20230;-58
2023/10/14 09:46:00;;;;;;;4.57;1.60;;;15.30;99.90;;;;;;5031352;28;20206;-57
2023/10/14 09:48:31;;;;;;;8.80;1.97;;;15.50;99.90;;;;;;5029112;28;20674;-57
2023/10/14 09:51:00;;;;;;;11.37;1.43;;;15.50;99.90;;;;;;5033145;28;20260;-57
2023/10/14 09:53:27;;;;;;;7.50;1.50;;;15.30;99.90;;;;;;5032641;28;20197;-56
2023/10/14 09:56:04;;;;;;;6.43;2.03;;;15.30;99.90;;;;;;5031997;28;20881;-55
2023/10/14 09:58:34;;;;;;;7.50;1.30;;;15.30;99.90;;;;;;5031299;28;20674;-54
2023/10/14 10:01:03;;;;;;;5.93;1.60;;;15.30;99.90;;;;;;5037685;28;20199;-56
2023/10/14 10:03:48;;;;;;;5.03;1.77;;;15.40;99.90;;;;;;5033670;28;20194;-60
2023/10/14 10:06:43;;;;;;;4.37;1.60;;;15.50;99.90;;;;;;5008253;28;20203;-53
2023/10/14 10:09:35;;;;;;;8.73;2.00;;;15.50;99.90;;;;;;5031993;28;20278;-60
2023/10/14 10:12:10;;;;;;;6.73;1.47;;;15.60;99.90;;;;;;5030871;28;20283;-55
2023/10/14 10:14:45;;;;;;;8.70;1.97;;;15.50;99.90;;;;;;5028551;28;20202;-53
2023/10/14 10:17:12;;;;;;;5.00;1.80;;;15.60;99.90;;;;;;5031877;28;20194;-56
2023/10/14 10:20:10;;;;;;;6.50;1.70;;;15.60;99.90;;;;;;5029225;28;20229;-64
2023/10/14 10:22:43;;;;;;;9.00;2.13;;;15.70;99.90;;;;;;5028319;28;20901;-67
2023/10/14 10:25:11;;;;;;;5.97;1.63;;;15.80;99.90;;;;;;5029599;28;20198;-56
2023/10/14 10:27:40;;;;;;;3.57;1.40;;;15.90;99.90;;;;;;5031961;28;20195;-63
2023/10/14 10:30:11;;;;;;;5.90;1.67;;;16.10;99.90;;;;;;5013081;28;20191;-57
2023/10/14 10:32:38;;;;;;;4.37;1.57;;;16.20;99.90;;;;;;5029527;28;20775;-57
2023/10/14 10:35:06;;;;;;;6.53;1.83;;;16.10;99.90;;;;;;5032426;28;20618;-57
2023/10/14 10:37:47;;;;;;;7.37;2.23;;;16.10;99.90;;;;;;5034675;28;20728;-57
2023/10/14 10:40:16;;;;;;;9.73;2.17;;;16.20;99.90;;;;;;5040151;28;20212;-59
2023/10/14 10:42:57;;;;;;;4.90;1.40;;;16.20;99.90;;;;;;5017195;28;20191;-56
2023/10/14 10:45:30;;;;;;;2.83;1.23;;;16.10;99.90;;;;;;5028279;28;20790;-56
2023/10/14 10:47:59;;;;;;;4.70;1.80;;;15.90;99.90;;;;;;5036948;28;20298;-57
2023/10/14 10:50:37;;;;;;;6.43;1.40;;;15.70;99.90;;;;;;5039525;28;20286;-57
2023/10/14 10:53:06;;;;;;;6.37;2.20;;;15.60;99.90;;;;;;5029934;28;20210;-58
2023/10/14 10:55:36;;;;;;;7.83;1.43;;;15.70;99.90;;;;;;5031202;28;20218;-57
2023/10/14 10:58:02;;;;;;;5.03;1.97;;;15.70;99.90;;;;;;5033876;28;21069;-58
2023/10/14 11:00:30;;;;;;;6.30;1.80;;;15.70;99.90;;;;;;5015416;28;20302;-57
2023/10/14 11:02:56;;;;;;;4.97;1.80;;;15.60;99.90;;;;;;5032964;28;20648;-57
2023/10/14 11:05:24;;;;;;;4.90;1.47;;;15.50;99.90;;;;;;5034472;28;20427;-57
2023/10/14 11:07:52;;;;;;;4.07;1.17;;;15.50;99.90;;;;;;5039238;28;20684;-58
2023/10/14 11:10:25;;;;;;;7.37;1.33;;;15.50;99.90;;;;;;5013113;28;20207;-57
2023/10/14 11:12:54;;;;;;;5.43;1.87;;;15.40;99.90;;;;;;5028943;28;20629;-58
2023/10/14 11:15:25;;;;;;;6.17;1.80;;;15.30;99.90;;;;;;5017723;28;20202;-56
2023/10/14 11:17:57;;;;;;;11.70;2.00;;;15.30;99.90;;;;;;5031935;28;20202;-57
2023/10/14 11:20:35;;;;;;;6.57;1.70;;;15.30;99.90;;;;;;5028946;28;20203;-57
2023/10/14 11:23:03;;;;;;;5.83;1.83;;;15.50;99.90;;;;;;5027745;28;20225;-57
2023/10/14 11:25:34;;;;;;;4.57;1.57;;;15.80;99.90;;;;;;5030723;28;20546;-61
2023/10/14 11:28:00;;;;;;;3.90;1.43;;;16.20;99.90;;;;;;5024178;28;20202;-58
2023/10/14 11:30:29;;;;;;;3.67;1.37;;;16.30;99.50;;;;;;5013544;28;20967;-57
2023/10/14 11:32:58;;;;;;;5.70;1.90;;;16.40;99.40;;;;;;5030970;28;20207;-58
2023/10/14 11:35:28;;;;;;;3.97;1.40;;;16.40;99.30;;;;;;5031064;28;20704;-57
2023/10/14 11:37:56;;;;;;;5.70;2.37;;;16.60;97.40;;;;;;5081251;23;20225;-58
2023/10/14 11:40:26;;;;;;;7.60;1.70;;;16.40;97.10;;;;;;5087619;23;20699;-57
2023/10/14 11:42:54;;;;;;;9.37;2.13;;;16.30;97.80;;;;;;5046073;28;20271;-57
2023/10/14 11:45:20;;;;;;;4.73;1.80;;;16.50;98.50;;;;;;5030367;28;20285;-57
2023/10/14 11:47:46;;;;;;;7.90;1.47;;;16.70;97.40;;;;;;5037191;28;20210;-57
2023/10/14 11:50:12;;;;;;;5.20;1.70;;;16.00;95.20;;;;;;5037190;28;20191;-65
2023/10/14 11:52:42;;;;;;;5.97;1.73;;;15.90;96.60;;;;;;5042781;28;20214;-57
2023/10/14 11:55:14;;;;;;;6.60;1.97;;;15.80;98.10;;;;;;5044204;28;20684;-56
2023/10/14 11:57:41;;;;;;;4.47;1.40;;;15.60;98.10;;;;;;5038533;28;20198;-58
2023/10/14 12:00:10;;;;;;;8.57;2.23;;;15.40;97.10;;;;;;5033038;28;20195;-56
2023/10/14 12:02:37;;;;;;;3.83;1.27;;;15.40;97.90;;;;;;5019926;28;20680;-56
2023/10/14 12:05:04;;;;;;;6.07;1.57;;;15.30;98.40;;;;;;5038009;28;20663;-58
2023/10/14 12:07:32;;;;;;;8.23;1.70;;;15.40;98.70;;;;;;5037378;28;20627;-53
2023/10/14 12:10:01;;;;;;;4.00;1.17;;;15.70;97.60;;;;;;5019622;28;20207;-57
2023/10/14 12:12:27;;;;;;;10.03;1.90;;;16.20;97.20;;;;;;5034133;28;20305;-58
2023/10/14 12:14:53;;;;;;;8.43;1.90;;;16.00;97.10;;;;;;5035843;28;20902;-57
2023/10/14 12:17:18;;;;;;;6.60;1.50;;;15.90;98.40;;;;;;5037302;28;20210;-56
2023/10/14 12:19:44;;;;;;;6.13;2.03;;;16.20;97.50;;;;;;5031198;28;20202;-57
2023/10/14 12:22:10;;;;;;;9.00;3.47;;;16.20;97.80;;;;;;5041413;28;20278;-56
2023/10/14 12:24:35;;;;;;;7.47;1.77;;;16.40;99.20;;;;;;5034463;28;20940;-58
2023/10/14 12:27:01;;;;;;;7.90;1.97;;;16.70;99.90;;;;;;5029248;28;20731;-57
2023/10/14 12:29:27;;;;;;;14.53;2.20;;;16.50;99.80;;;;;;5037491;28;20195;-56
2023/10/14 12:31:54;;;;;;;7.43;1.90;;;16.70;99.90;;;;;;5036794;28;20895;-56
2023/10/14 12:34:24;;;;;;;11.30;2.87;;;16.80;98.50;;;;;;5037602;28;20233;-56
2023/10/14 12:36:52;;;;;;;8.33;2.23;;;16.80;98.70;;;;;;5035523;28;20250;-60
2023/10/14 12:39:26;;;;;;;4.47;1.80;;;16.50;99.40;;;;;;5032717;28;20228;-59
2023/10/14 12:41:53;;;;;;;9.53;2.90;;;16.10;99.60;;;;;;5020390;28;20694;-54
2023/10/14 12:44:19;;;;;;;11.03;2.23;;;16.00;99.70;;;;;;5032696;28;20213;-54
2023/10/14 12:46:45;;;;;;;7.70;1.87;;;16.00;99.70;;;;;;5038895;28;20217;-61
2023/10/14 12:49:11;;;;;;;7.37;2.33;;;16.00;99.60;;;;;;5030563;28;20196;-55
2023/10/14 12:51:43;;;;;;;7.60;2.30;;;16.20;98.20;;;;;;5034043;28;20693;-58
2023/10/14 12:54:16;;;;;;;5.17;2.03;;;16.10;99.30;;;;;;5036904;28;20205;-55
2023/10/14 12:56:46;;;;;;;7.30;1.50;;;16.10;97.90;;;;;;5031907;28;20678;-55
2023/10/14 12:59:14;;;;;;;5.80;1.40;;;16.00;98.90;;;;;;5034339;28;20554;-57
2023/10/14 13:01:46;;;;;;;7.57;1.70;;;15.90;99.00;;;;;;5034655;28;20838;-56
2023/10/14 13:04:16;;;;;;;6.23;1.83;;;15.80;99.00;;;;;;5030626;28;20206;-55
2023/10/14 13:06:44;;;;;;;7.70;1.83;;;15.70;98.90;;;;;;5036174;28;20206;-55
2023/10/14 13:09:11;;;;;;;8.57;1.50;;;15.80;98.30;;;;;;5035683;28;20226;-54
2023/10/14 13:11:39;;;;;;;4.37;1.90;;;15.90;99.10;;;;;;5034004;28;20206;-55